Pilger, NE (68768)

01:25 PM CDT del 24 Luglio 2016 (GMT -0500)
1 mile South of Wayne | | Change Station

Alt. 1463 ft 42.22 °N, 97.01 °W | Updated 6 seconds ago

Clear
Sereno
83.5 °F
Sembra 81 °F
N
5.6
Vento Variabile Vento da Ovest
Gusts 7.4 mph

Oggi
Massima -- | Minima -- °F
--% Possibilità di precip.
Ieri
Massima -- | Minima -- °F
Precip. -- in
Pressione 30.05 in
Visibilità 10.0 miglia
Nuvole Sereno
Indice di calore 81 °F
Punto di rugiada 26 °F
Umidità 12%
Piovosità 0.00 in
Spessore del manto nevoso Non disponibile.
6:14 AM 8:54 PM
Gobba a levante, 74% visible
METAR KLCG 241815Z AUTO 34009KT 10SM CLR 29/18 A3005 RMK AO2 T02940180
Pressione 30.05 in
Visibilità 10.0 miglia
Nuvole Sereno
Indice di calore 81 °F
Punto di rugiada 26 °F
Umidità 12%
Piovosità 0.00 in
Spessore del manto nevoso Non disponibile.
6:14 AM 8:54 PM
Gobba a levante, 74% visible
METAR KLCG 241815Z AUTO 34009KT 10SM CLR 29/18 A3005 RMK AO2 T02940180

10-Day Weather Forecast

Almanac

Astronomia

Jul. 24, 2016 Alba Tramonto
Ora attuale
Crepuscolo civile
Crepuscolo nautico
Crepuscolo astronomico
Luna
Estensione della luce visibile
Lunghezza del giorno
Tomorrow will be .
, % of the Moon is Illuminated

Gli estremi di oggi

State Highs State Lows

Community

WunderPhotos

Upload Photos

1,927,151 foto caricate!

WunderBlog® & News

Nearby

Qualità dell'aria

  Qualità dell'aria Indice AQ Inquinante
Not available.

Profondità neve

Stazione Profondità Altitudine

Attività sismica

Città  Distanza Mag. Data & Ora
Minimo Magnitudo Mostrato è 2.5.

Temperature delle acque costiere

Località Temperatura

Stations

Stazioni meteo nelle vicinanze

Ubicazione della stazione Temp. Raffreddamento del vento Punto di rugiada Umidità Vento Precip. Alt. Aggiornato Tipo
                   

Watches & Warnings

There are currently no watches in effect.